createdAt,value
2019-03-10T00:03:38.909Z,12.98
2019-03-10T00:08:41.384Z,12.97
2019-03-10T00:13:43.846Z,12.97
2019-03-10T00:18:46.325Z,12.93
2019-03-10T00:23:48.787Z,12.94
2019-03-10T00:28:51.248Z,12.91
2019-03-10T00:33:53.748Z,12.87
2019-03-10T00:39:08.042Z,12.88
2019-03-10T00:44:47.932Z,12.84
2019-03-10T00:49:53.276Z,12.77
2019-03-10T00:54:55.732Z,12.75
2019-03-10T01:00:00.531Z,12.77
2019-03-10T01:05:00.682Z,12.77
2019-03-10T01:10:03.146Z,12.74
2019-03-10T01:15:05.609Z,12.77
2019-03-10T01:20:08.091Z,12.77
2019-03-10T01:25:10.561Z,12.74
2019-03-10T01:30:13.024Z,12.68
2019-03-10T01:35:18.445Z,12.74
2019-03-10T01:40:20.902Z,12.75
2019-03-10T01:45:23.354Z,12.62
2019-03-10T01:50:25.802Z,12.68
2019-03-10T01:55:28.255Z,12.68
2019-03-10T02:00:30.800Z,12.72
2019-03-10T02:05:33.250Z,12.70
2019-03-10T02:10:35.699Z,12.75
2019-03-10T02:15:38.247Z,12.77
2019-03-10T02:20:40.696Z,12.78
2019-03-10T02:25:43.150Z,12.77
2019-03-10T02:30:45.605Z,12.70
2019-03-10T02:35:48.054Z,12.59
2019-03-10T02:40:50.506Z,12.58
2019-03-10T02:45:52.963Z,12.57
2019-03-10T02:50:55.433Z,12.36
2019-03-10T02:55:57.905Z,12.18
2019-03-10T03:01:00.365Z,12.13
2019-03-10T03:06:02.827Z,12.11
2019-03-10T03:11:05.295Z,12.25
2019-03-10T03:16:07.750Z,12.28
2019-03-10T03:21:10.197Z,12.13
2019-03-10T03:26:12.656Z,12.12
2019-03-10T03:31:15.096Z,12.09
2019-03-10T03:36:29.583Z,12.08
2019-03-10T03:41:32.072Z,12.15
2019-03-10T03:46:34.544Z,12.22
2019-03-10T03:51:37.019Z,12.10
2019-03-10T03:56:39.471Z,12.07
2019-03-10T04:01:44.759Z,12.07
2019-03-10T04:06:47.214Z,11.95
2019-03-10T04:11:49.669Z,11.89
2019-03-10T04:16:52.145Z,11.74
2019-03-10T04:21:54.578Z,11.76
2019-03-10T04:26:57.052Z,11.67
2019-03-10T04:31:59.505Z,11.61
2019-03-10T04:37:01.974Z,11.60
2019-03-10T04:42:04.418Z,11.55
2019-03-10T04:47:06.876Z,11.50
2019-03-10T04:52:09.350Z,11.46
2019-03-10T04:57:11.792Z,11.37
2019-03-10T05:02:14.310Z,11.32
2019-03-10T05:07:16.772Z,11.34
2019-03-10T05:12:19.239Z,11.28
2019-03-10T05:17:21.751Z,11.25
2019-03-10T05:22:24.195Z,11.19
2019-03-10T05:27:26.649Z,11.16
2019-03-10T05:32:29.104Z,11.19
2019-03-10T05:37:31.549Z,11.10
2019-03-10T05:42:34.040Z,11.10
2019-03-10T05:47:36.543Z,11.12
2019-03-10T05:52:39.003Z,11.12
2019-03-10T05:57:41.466Z,11.13
2019-03-10T06:02:43.916Z,11.12
2019-03-10T06:07:46.372Z,11.03
2019-03-10T06:12:48.839Z,11.11
2019-03-10T06:17:51.300Z,10.93
2019-03-10T06:22:53.796Z,10.94
2019-03-10T06:27:56.309Z,10.97
2019-03-10T06:32:58.776Z,10.95
2019-03-10T06:38:01.240Z,10.99
2019-03-10T06:43:03.690Z,10.96
2019-03-10T06:48:06.131Z,10.93
2019-03-10T06:53:08.612Z,11.03
2019-03-10T06:58:11.040Z,11.08
2019-03-10T07:03:13.506Z,11.05
2019-03-10T07:08:15.948Z,11.02
2019-03-10T07:13:18.406Z,11.05
2019-03-10T07:18:20.852Z,11.19
2019-03-10T07:23:23.321Z,11.38
2019-03-10T07:28:25.781Z,11.60
2019-03-10T07:33:31.327Z,11.68
2019-03-10T07:38:46.107Z,11.96
2019-03-10T07:44:00.800Z,12.16
2019-03-10T07:49:18.405Z,12.30
2019-03-10T07:54:20.596Z,12.47
2019-03-10T07:59:41.170Z,12.59
2019-03-10T08:04:52.702Z,12.74
2019-03-10T08:10:01.278Z,12.88
2019-03-10T08:15:09.454Z,12.88
2019-03-10T08:20:17.888Z,12.94
2019-03-10T08:25:29.203Z,13.13
2019-03-10T08:30:31.712Z,13.15
2019-03-10T08:35:52.389Z,13.13
2019-03-10T08:41:03.940Z,13.15
2019-03-10T08:46:24.899Z,13.20
2019-03-10T08:51:39.463Z,13.25
2019-03-10T08:56:41.976Z,13.34
2019-03-10T09:01:59.416Z,13.56
2019-03-10T09:07:04.437Z,13.63
2019-03-10T09:12:09.958Z,13.86
2019-03-10T09:17:12.416Z,14.01
2019-03-10T09:22:14.872Z,14.42
2019-03-10T09:27:35.464Z,14.55
2019-03-10T09:32:46.742Z,14.66
2019-03-10T09:37:55.137Z,14.61
2019-03-10T09:43:15.786Z,14.44
2019-03-10T09:48:18.264Z,14.51
2019-03-10T09:53:35.913Z,15.22
2019-03-10T09:58:38.465Z,15.36
2019-03-10T10:03:44.030Z,15.42
2019-03-10T10:08:46.494Z,15.43
2019-03-10T10:13:48.958Z,15.95
2019-03-10T10:18:51.409Z,16.28
2019-03-10T10:24:11.950Z,16.45
2019-03-10T10:29:32.870Z,16.30
2019-03-10T10:34:38.004Z,16.35
2019-03-10T10:39:40.490Z,16.33
2019-03-10T10:44:48.959Z,16.84
2019-03-10T10:50:03.403Z,16.96
2019-03-10T10:55:14.865Z,16.12
2019-03-10T11:00:29.024Z,16.03
2019-03-10T11:05:34.438Z,15.99
2019-03-10T11:10:49.160Z,16.55
2019-03-10T11:16:06.851Z,16.89
2019-03-10T11:21:09.321Z,17.02
2019-03-10T11:26:17.748Z,16.60
2019-03-10T11:31:23.218Z,16.25
2019-03-10T11:36:28.828Z,16.67
2019-03-10T11:41:34.123Z,16.92
2019-03-10T11:46:33.673Z,16.64
2019-03-10T11:51:36.166Z,16.66
2019-03-10T11:56:56.922Z,16.46
2019-03-10T12:01:59.375Z,17.00
2019-03-10T12:07:13.982Z,17.21
2019-03-10T12:12:16.463Z,17.35
2019-03-10T12:17:18.938Z,16.72
2019-03-10T12:22:21.413Z,16.97
2019-03-10T12:27:23.899Z,17.22
2019-03-10T12:32:26.403Z,19.09
2019-03-10T12:37:28.869Z,19.13
2019-03-10T12:42:31.359Z,19.04
2019-03-10T12:47:33.819Z,19.38
2019-03-10T12:52:36.314Z,19.23
2019-03-10T12:57:38.803Z,19.22
2019-03-10T13:02:41.267Z,18.65
2019-03-10T13:07:43.739Z,18.53
2019-03-10T13:12:46.204Z,18.59
2019-03-10T13:17:48.749Z,18.52
2019-03-10T13:22:51.198Z,18.99
2019-03-10T13:27:53.664Z,18.87
2019-03-10T13:32:56.141Z,18.57
2019-03-10T13:37:58.623Z,19.01
2019-03-10T13:43:01.093Z,18.62
2019-03-10T13:48:03.627Z,18.84
2019-03-10T13:53:06.076Z,18.42
2019-03-10T13:58:08.536Z,18.76
2019-03-10T14:03:11.000Z,18.83
2019-03-10T14:08:13.481Z,18.73
2019-03-10T14:13:15.927Z,18.82
2019-03-10T14:18:18.413Z,18.99
2019-03-10T14:23:20.891Z,18.66
2019-03-10T14:28:23.354Z,18.45
2019-03-10T14:33:25.818Z,17.93
2019-03-10T14:38:28.338Z,18.25
2019-03-10T14:43:30.794Z,18.36
2019-03-10T14:48:33.277Z,18.24
2019-03-10T14:53:35.751Z,17.85
2019-03-10T14:58:38.220Z,17.55
2019-03-10T15:03:40.689Z,17.44
2019-03-10T15:08:43.156Z,17.68
2019-03-10T15:13:45.658Z,17.74
2019-03-10T15:18:48.133Z,17.35
2019-03-10T15:23:50.633Z,17.29
2019-03-10T15:28:53.114Z,17.40
2019-03-10T15:33:55.578Z,17.27
2019-03-10T15:38:58.051Z,17.16
2019-03-10T15:44:00.536Z,17.13
2019-03-10T15:49:03.035Z,17.00
2019-03-10T15:54:06.004Z,16.58
2019-03-10T15:59:08.009Z,16.61
2019-03-10T16:04:19.234Z,16.53
2019-03-10T16:09:21.746Z,16.07
2019-03-10T16:14:24.296Z,16.00
2019-03-10T16:19:26.796Z,15.91
2019-03-10T16:24:29.269Z,15.91
2019-03-10T16:29:31.797Z,15.77
2019-03-10T16:34:34.264Z,15.63
2019-03-10T16:39:36.748Z,15.46
2019-03-10T16:44:39.227Z,15.19
2019-03-10T16:49:41.821Z,15.14
2019-03-10T16:54:44.322Z,14.92
2019-03-10T16:59:46.821Z,14.74
2019-03-10T17:04:49.293Z,14.56
2019-03-10T17:09:51.755Z,14.43
2019-03-10T17:14:54.230Z,14.36
2019-03-10T17:19:56.704Z,14.23
2019-03-10T17:24:59.175Z,14.14
2019-03-10T17:30:01.682Z,14.10
2019-03-10T17:35:04.152Z,14.04
2019-03-10T17:40:09.535Z,14.00
2019-03-10T17:45:12.035Z,13.89
2019-03-10T17:50:14.535Z,13.79
2019-03-10T17:55:17.019Z,13.62
2019-03-10T18:00:19.486Z,13.36
2019-03-10T18:05:21.965Z,13.11
2019-03-10T18:10:24.458Z,12.99
2019-03-10T18:15:27.072Z,12.82
2019-03-10T18:20:29.476Z,12.62
2019-03-10T18:25:31.994Z,12.50
2019-03-10T18:30:34.448Z,12.22
2019-03-10T18:35:36.917Z,12.10
2019-03-10T18:40:39.384Z,12.07
2019-03-10T18:45:41.862Z,12.06
2019-03-10T18:50:44.329Z,12.03
2019-03-10T18:55:46.808Z,11.97
2019-03-10T19:00:49.295Z,12.01
2019-03-10T19:05:51.769Z,12.03
2019-03-10T19:10:54.269Z,12.02
2019-03-10T19:15:56.737Z,12.04
2019-03-10T19:20:59.211Z,12.00
2019-03-10T19:26:01.800Z,12.04
2019-03-10T19:31:04.167Z,12.02
2019-03-10T19:36:06.637Z,11.93
2019-03-10T19:41:09.121Z,11.91
2019-03-10T19:46:11.593Z,11.92
2019-03-10T19:51:14.096Z,11.88
2019-03-10T19:56:16.566Z,11.88
2019-03-10T20:01:19.067Z,11.84
2019-03-10T20:06:21.561Z,11.79
2019-03-10T20:11:24.032Z,11.80
2019-03-10T20:16:26.507Z,11.74
2019-03-10T20:21:28.973Z,11.74
2019-03-10T20:26:31.457Z,11.67
2019-03-10T20:31:33.938Z,11.44
2019-03-10T20:36:36.420Z,11.14
2019-03-10T20:41:38.924Z,11.15
2019-03-10T20:46:41.397Z,11.22
2019-03-10T20:51:43.870Z,11.17
2019-03-10T20:56:46.353Z,11.14
2019-03-10T21:01:48.870Z,11.09
2019-03-10T21:06:51.355Z,11.08
2019-03-10T21:11:53.855Z,10.99
2019-03-10T21:16:56.291Z,10.95
2019-03-10T21:21:58.762Z,10.79
2019-03-10T21:27:01.297Z,10.70
2019-03-10T21:32:03.781Z,10.64
2019-03-10T21:37:06.264Z,10.63
2019-03-10T21:42:08.742Z,10.62
2019-03-10T21:47:11.220Z,10.58
2019-03-10T21:52:13.715Z,10.54
2019-03-10T21:57:16.208Z,10.50
2019-03-10T22:02:18.684Z,10.41
2019-03-10T22:07:21.156Z,10.36
2019-03-10T22:12:23.607Z,10.26
2019-03-10T22:17:26.081Z,10.20
2019-03-10T22:22:28.554Z,10.17
2019-03-10T22:27:31.048Z,10.10
2019-03-10T22:32:33.487Z,10.10
2019-03-10T22:37:35.964Z,10.06
2019-03-10T22:42:38.465Z,10.16
2019-03-10T22:47:40.934Z,10.27
2019-03-10T22:52:43.467Z,10.29
2019-03-10T22:57:45.955Z,10.21
2019-03-10T23:02:48.420Z,10.08
2019-03-10T23:07:50.886Z,9.95
2019-03-10T23:12:53.415Z,9.84
2019-03-10T23:17:55.908Z,9.73
2019-03-10T23:22:58.366Z,9.67
2019-03-10T23:28:00.892Z,9.58
2019-03-10T23:33:04.152Z,9.53
2019-03-10T23:38:06.628Z,9.46
2019-03-10T23:43:09.170Z,9.44
2019-03-10T23:48:11.559Z,9.37
2019-03-10T23:53:14.037Z,9.29
2019-03-10T23:58:16.508Z,9.20
